Terminal Aerodrome Forecast
Issued by NWS

Home | Current Version | Previous Version | Text Only | Print | Product List | Glossary On
Versions: 1 2 3 4 5 6 7 8 9 10 11 12 13 14 15 16 17
755
FTUS43 KOAX 061722
TAFSNY
TAF
KSNY 061722Z 0618/0718 33009KT P6SM SKC
     FM070100 05008KT P6SM BKN050 OVC100
     FM070600 08010KT 1SM -SN BR BKN007 OVC015
     FM071300 36014G21KT 4SM -SN BR SCT015 OVC030=

USA.gov is the U.S. government's official web portal to all federal, state and local government web resources and services.